Time;durP1;ratioP1;P1;durP2;ratioP2;P2;SDS_P1;SDS_P2;PMS_P1;PMS_P2;Temp;Humidity;BMP_temperature;BMP_pressure;BME280_temperature;BME280_humidity;BME280_pressure;Samples;Min_cycle;Max_cycle;Signal;HPM_P1;HPM_P2
2023/07/09 00:00:13;;;;;;;5.00;4.50;;;;;;;18.61;71.00;98668.23;103566;1280;61108;-81
2023/07/09 00:02:41;;;;;;;4.30;3.80;;;;;;;18.60;70.39;98671.63;103839;1279;61029;-81
2023/07/09 00:05:13;;;;;;;5.20;4.40;;;;;;;18.58;69.96;98673.59;103816;1280;73756;-84
2023/07/09 00:07:40;;;;;;;5.70;4.70;;;;;;;18.58;69.40;98670.92;103953;1281;74638;-84
2023/07/09 00:10:20;;;;;;;5.70;5.30;;;;;;;18.57;68.94;98667.04;103569;1280;72402;-85
2023/07/09 00:12:47;;;;;;;6.30;5.10;;;;;;;18.56;68.58;98672.23;103597;1280;61132;-82
2023/07/09 00:15:18;;;;;;;8.60;5.00;;;;;;;18.53;68.53;98669.95;103826;1280;61045;-83
2023/07/09 00:17:45;;;;;;;5.80;5.30;;;;;;;18.51;68.59;98674.30;103937;1282;75126;-84
2023/07/09 00:20:17;;;;;;;6.00;4.70;;;;;;;18.50;68.65;98675.31;103878;1278;74444;-83
2023/07/09 00:22:52;;;;;;;5.90;5.30;;;;;;;18.49;69.52;98676.55;103693;1277;73281;-82
2023/07/09 00:25:20;;;;;;;4.70;4.30;;;;;;;18.47;70.15;98675.60;103632;1285;61163;-83
2023/07/09 00:27:49;;;;;;;5.00;4.50;;;;;;;18.43;70.58;98674.35;103780;1280;61149;-83
2023/07/09 00:30:24;;;;;;;3.80;3.50;;;;;;;18.40;70.87;98673.88;103436;1283;73049;-83
2023/07/09 00:32:52;;;;;;;7.30;3.70;;;;;;;18.37;71.45;98675.29;103793;1278;74267;-85
2023/07/09 00:35:20;;;;;;;7.70;3.70;;;;;;;18.34;71.87;98673.91;103697;1284;71405;-82
2023/07/09 00:37:47;;;;;;;7.30;4.00;;;;;;;18.32;72.13;98673.47;103871;1282;61695;-81
2023/07/09 00:40:16;;;;;;;5.80;4.40;;;;;;;18.29;72.32;98673.05;103960;1280;61107;-81
2023/07/09 00:42:47;;;;;;;6.60;3.90;;;;;;;18.25;72.52;98672.46;103855;1280;73081;-81
2023/07/09 00:45:22;;;;;;;6.10;3.50;;;;;;;18.23;72.73;98670.15;103858;1280;74027;-80
2023/07/09 00:47:55;;;;;;;4.80;2.90;;;;;;;18.19;72.92;98670.31;103853;1280;72987;-80
2023/07/09 00:50:33;;;;;;;4.30;3.20;;;;;;;18.17;73.09;98671.29;103891;1277;61815;-81
2023/07/09 00:53:08;;;;;;;6.50;3.10;;;;;;;18.15;73.22;98670.36;103910;1283;61219;-79
2023/07/09 00:55:38;;;;;;;6.00;2.90;;;;;;;18.13;73.36;98665.64;107238;1276;73106;-79
2023/07/09 00:58:09;;;;;;;4.40;3.10;;;;;;;18.12;73.43;98668.48;106436;1280;72784;-81
2023/07/09 01:00:46;;;;;;;4.60;3.80;;;;;;;18.10;73.67;98668.68;104015;1280;72354;-86
2023/07/09 01:03:18;;;;;;;5.50;3.90;;;;;;;18.06;73.73;98669.19;104052;1280;61215;-85
2023/07/09 01:05:51;;;;;;;7.50;3.30;;;;;;;18.04;74.00;98665.61;103704;1280;61096;-87
2023/07/09 01:08:20;;;;;;;;;;;;;;;18.02;74.02;98666.16;103688;1285;71647;-86
2023/07/09 01:10:47;;;;;;;5.30;3.20;;;;;;;17.99;74.09;98665.21;103895;1281;74571;-85
2023/07/09 01:13:14;;;;;;;4.30;3.30;;;;;;;17.95;74.12;98669.33;103870;1280;72543;-84
2023/07/09 01:15:43;;;;;;;5.30;4.00;;;;;;;17.94;74.11;98674.95;103748;1279;61073;-84
2023/07/09 01:18:10;;;;;;;4.60;3.60;;;;;;;17.92;74.22;98670.56;103920;1278;61072;-81
2023/07/09 01:20:38;;;;;;;10.30;3.30;;;;;;;17.90;74.19;98668.05;103782;1280;73455;-85
2023/07/09 01:23:05;;;;;;;3.80;3.10;;;;;;;17.87;74.38;98668.98;103861;1282;75330;-84
2023/07/09 01:25:36;;;;;;;4.60;3.40;;;;;;;17.85;74.28;98670.09;103912;1280;72859;-83
2023/07/09 01:28:04;;;;;;;6.70;3.90;;;;;;;17.83;74.40;98670.88;103697;1283;61211;-84
2023/07/09 01:30:34;;;;;;;5.90;5.20;;;;;;;17.80;73.93;98667.02;103885;1278;61108;-84
2023/07/09 01:33:02;;;;;;;4.80;4.40;;;;;;;17.77;73.62;98665.64;103947;1279;73892;-84
2023/07/09 01:35:31;;;;;;;5.30;4.80;;;;;;;17.73;72.74;98668.73;103933;1282;72924;-84
2023/07/09 01:37:58;;;;;;;5.80;4.30;;;;;;;17.68;72.22;98671.33;103875;1282;72684;-85
2023/07/09 01:40:27;;;;;;;5.10;3.80;;;;;;;17.63;71.12;98669.44;103515;1280;61116;-85
2023/07/09 01:42:59;;;;;;;5.40;4.60;;;;;;;17.59;70.29;98675.29;103751;1280;61210;-85
2023/07/09 01:45:27;;;;;;;7.00;4.10;;;;;;;17.56;70.08;98668.90;103929;1280;72954;-85
2023/07/09 01:47:55;;;;;;;5.10;4.30;;;;;;;17.54;70.03;98669.04;104223;1279;74249;-83
2023/07/09 01:50:24;;;;;;;4.50;4.00;;;;;;;17.55;70.11;98670.25;104314;1282;72865;-84
2023/07/09 01:52:52;;;;;;;5.30;3.50;;;;;;;17.55;69.73;98671.13;103958;1280;61190;-86
2023/07/09 01:55:19;;;;;;;8.50;5.10;;;;;;;17.55;69.67;98674.56;103961;1280;61097;-85
2023/07/09 01:57:46;;;;;;;5.00;4.30;;;;;;;17.55;70.79;98676.70;103979;1282;72624;-84
2023/07/09 02:00:15;;;;;;;10.70;6.40;;;;;;;17.54;71.65;98680.77;103836;1282;74329;-83
2023/07/09 02:02:48;;;;;;;12.80;6.10;;;;;;;17.54;72.93;98682.65;103900;1280;72686;-83
2023/07/09 02:05:17;;;;;;;9.50;5.40;;;;;;;17.51;73.41;98679.84;103843;1280;61131;-83
2023/07/09 02:07:46;;;;;;;5.40;3.70;;;;;;;17.46;72.66;98685.73;103874;1281;61185;-81
2023/07/09 02:10:14;;;;;;;16.30;5.80;;;;;;;17.41;72.36;98681.48;103550;1280;74826;-84
2023/07/09 02:12:41;;;;;;;9.40;6.60;;;;;;;17.40;72.68;98681.43;103790;1279;73119;-83
2023/07/09 02:15:10;;;;;;;14.20;9.70;;;;;;;17.39;73.15;98686.55;103856;1279;73137;-85
2023/07/09 02:17:37;;;;;;;15.10;9.10;;;;;;;17.39;74.21;98685.98;103860;1277;61600;-82
2023/07/09 02:20:06;;;;;;;8.20;5.60;;;;;;;17.39;74.60;98685.98;103875;1280;61195;-82
2023/07/09 02:22:35;;;;;;;11.20;7.80;;;;;;;17.37;73.51;98684.91;103902;1280;75198;-86
2023/07/09 02:25:03;;;;;;;8.90;6.50;;;;;;;17.33;73.67;98682.89;103882;1277;74590;-86
2023/07/09 02:27:31;;;;;;;11.20;5.50;;;;;;;17.29;74.03;98682.02;103984;1282;71306;-84
2023/07/09 02:29:58;;;;;;;13.70;6.10;;;;;;;17.24;74.44;98682.62;103936;1280;61196;-85
2023/07/09 02:32:26;;;;;;;12.50;6.00;;;;;;;17.20;74.78;98687.98;103583;1283;61140;-86
2023/07/09 02:34:54;;;;;;;7.50;4.30;;;;;;;17.14;73.99;98691.05;103654;1283;74827;-86
2023/07/09 02:37:23;;;;;;;4.90;4.40;;;;;;;17.11;74.28;98688.22;104084;1280;73206;-85
2023/07/09 02:39:50;;;;;;;5.50;4.10;;;;;;;17.09;75.12;98695.84;104160;1282;73837;-85
2023/07/09 02:42:20;;;;;;;6.50;4.60;;;;;;;17.08;75.53;98696.09;104031;1280;61205;-86
2023/07/09 02:44:48;;;;;;;5.80;4.30;;;;;;;17.06;75.69;98693.36;103997;1278;61129;-86
2023/07/09 02:47:15;;;;;;;7.70;4.80;;;;;;;17.05;75.86;98694.80;103615;1284;73805;-86
2023/07/09 02:49:42;;;;;;;6.40;5.00;;;;;;;17.03;75.99;98695.68;103899;1282;73000;-87
2023/07/09 02:52:09;;;;;;;8.30;5.20;;;;;;;17.01;75.95;98694.59;103727;1280;71704;-85
2023/07/09 02:54:37;;;;;;;8.70;4.90;;;;;;;16.98;76.11;98693.18;103877;1278;61111;-86
2023/07/09 02:57:04;;;;;;;14.90;9.00;;;;;;;16.96;76.41;98693.00;103906;1277;61260;-86
2023/07/09 02:59:31;;;;;;;13.80;8.80;;;;;;;16.95;76.62;98695.98;103898;1280;73765;-86
2023/07/09 03:02:00;;;;;;;15.30;9.40;;;;;;;16.94;76.93;98694.42;103851;1280;74210;-86
2023/07/09 03:04:28;;;;;;;10.10;6.90;;;;;;;16.94;76.91;98696.10;103431;1285;72410;-86
2023/07/09 03:06:55;;;;;;;13.80;10.50;;;;;;;16.94;76.72;98696.07;103908;1280;61208;-86
2023/07/09 03:09:21;;;;;;;14.40;9.30;;;;;;;16.94;76.78;98697.31;103838;1282;61208;-85
2023/07/09 03:11:48;;;;;;;6.80;5.50;;;;;;;16.93;75.96;98692.93;103733;1282;72744;-85
2023/07/09 03:14:17;;;;;;;6.50;5.20;;;;;;;16.92;74.89;98695.91;103862;1282;75916;-85
2023/07/09 03:16:44;;;;;;;11.60;6.00;;;;;;;16.91;74.62;98695.97;103924;1280;71172;-85
2023/07/09 03:19:11;;;;;;;8.90;5.00;;;;;;;16.92;74.44;98699.69;103866;1282;61102;-85
2023/07/09 03:21:38;;;;;;;7.00;4.90;;;;;;;16.93;74.15;98694.15;103521;1284;61172;-85
2023/07/09 03:24:05;;;;;;;4.70;4.00;;;;;;;16.96;73.76;98696.27;103900;1283;72709;-84
2023/07/09 03:26:32;;;;;;;6.00;4.30;;;;;;;16.98;73.49;98697.85;103937;1279;73628;-84
2023/07/09 03:28:59;;;;;;;5.60;4.90;;;;;;;17.02;72.91;98696.51;103908;1281;72443;-85
2023/07/09 03:31:27;;;;;;;4.60;4.20;;;;;;;17.04;72.39;98695.23;103865;1280;61243;-85
2023/07/09 03:33:53;;;;;;;4.30;3.90;;;;;;;17.08;72.27;98701.35;103887;1282;61655;-85
2023/07/09 03:36:20;;;;;;;7.60;4.90;;;;;;;17.12;72.28;98695.75;103938;1280;72335;-86
2023/07/09 03:38:47;;;;;;;6.50;3.80;;;;;;;17.16;72.64;98690.30;103607;1280;73607;-84
2023/07/09 03:41:15;;;;;;;7.30;4.80;;;;;;;17.22;72.66;98695.55;103873;1282;72606;-85
2023/07/09 03:43:42;;;;;;;5.80;4.30;;;;;;;17.26;72.76;98690.63;103997;1282;61218;-85
2023/07/09 03:46:09;;;;;;;4.80;3.90;;;;;;;17.31;72.48;98696.68;103740;1282;61126;-87
2023/07/09 03:48:36;;;;;;;5.30;4.50;;;;;;;17.36;72.37;98692.46;104517;1279;72601;-85
2023/07/09 03:51:04;;;;;;;6.40;4.80;;;;;;;17.40;72.20;98690.98;103763;1280;74289;-85
2023/07/09 03:53:31;;;;;;;6.60;4.10;;;;;;;17.43;71.87;98693.95;103983;1280;71555;-84
2023/07/09 03:56:00;;;;;;;4.80;4.30;;;;;;;17.46;71.44;98691.86;103934;1280;61684;-86
2023/07/09 03:58:28;;;;;;;6.40;4.40;;;;;;;17.49;71.47;98693.23;103766;1280;61078;-85
2023/07/09 04:00:55;;;;;;;6.30;3.80;;;;;;;17.53;71.86;98696.27;103925;1281;72778;-86
2023/07/09 04:03:22;;;;;;;5.10;3.40;;;;;;;17.56;71.45;98694.90;104724;1283;73461;-83
2023/07/09 04:05:50;;;;;;;4.30;3.60;;;;;;;17.60;71.19;98694.02;105610;1280;71474;-87
2023/07/09 04:08:17;;;;;;;4.60;3.40;;;;;;;17.63;71.13;98692.65;103969;1283;61545;-88
2023/07/09 04:10:44;;;;;;;3.30;3.00;;;;;;;17.67;71.03;98694.55;103939;1280;61107;-85
2023/07/09 04:13:12;;;;;;;4.70;3.80;;;;;;;17.72;70.77;98697.46;103870;1282;74400;-86
2023/07/09 04:15:39;;;;;;;4.50;3.70;;;;;;;17.76;70.96;98697.98;103875;1282;75601;-86
2023/07/09 04:18:06;;;;;;;5.60;3.90;;;;;;;17.80;71.07;98702.33;103871;1281;73956;-87
2023/07/09 04:20:34;;;;;;;7.00;4.10;;;;;;;17.84;70.95;98699.91;103889;1281;61164;-86
2023/07/09 04:23:02;;;;;;;6.90;2.90;;;;;;;17.88;70.75;98706.05;103923;1281;61144;-85
2023/07/09 04:25:29;;;;;;;7.40;3.80;;;;;;;17.93;70.20;98701.63;103613;1280;74809;-84
2023/07/09 04:27:56;;;;;;;4.30;3.50;;;;;;;18.00;69.84;98705.70;103870;1282;72293;-85
2023/07/09 04:30:24;;;;;;;3.50;3.20;;;;;;;18.05;69.81;98707.89;103858;1282;72633;-85
2023/07/09 04:32:51;;;;;;;4.50;2.70;;;;;;;18.12;69.60;98711.28;103994;1282;61103;-83
2023/07/09 04:35:18;;;;;;;3.80;3.50;;;;;;;18.19;69.00;98711.69;107297;1280;59801;-84
2023/07/09 04:37:45;;;;;;;4.60;2.80;;;;;;;18.25;69.06;98709.98;107145;1277;73765;-83
2023/07/09 04:40:12;;;;;;;4.00;3.10;;;;;;;18.33;68.82;98712.85;104261;1282;75314;-85
2023/07/09 04:42:40;;;;;;;6.10;3.40;;;;;;;18.41;68.65;98710.62;104528;1282;73733;-84
2023/07/09 04:45:09;;;;;;;4.30;3.00;;;;;;;18.48;68.65;98712.86;104098;1280;61114;-84
2023/07/09 04:47:38;;;;;;;6.60;4.60;;;;;;;18.56;68.34;98711.73;103737;1283;61207;-83
2023/07/09 04:50:05;;;;;;;5.30;4.20;;;;;;;18.64;68.25;98712.26;103928;1283;74920;-82
2023/07/09 04:52:33;;;;;;;7.20;3.70;;;;;;;18.71;68.22;98712.55;103969;1279;74105;-83
2023/07/09 04:55:01;;;;;;;3.90;3.30;;;;;;;18.78;67.92;98712.29;103882;1280;71451;-83
2023/07/09 04:57:28;;;;;;;4.30;3.20;;;;;;;18.85;67.86;98708.23;103896;1282;61208;-83
2023/07/09 04:59:57;;;;;;;3.70;3.30;;;;;;;18.91;67.61;98708.30;103911;1277;61131;-83
2023/07/09 05:02:24;;;;;;;3.20;2.90;;;;;;;18.99;67.43;98706.13;103977;1280;73722;-83
2023/07/09 05:04:51;;;;;;;8.50;3.60;;;;;;;19.05;67.12;98710.01;103951;1282;72866;-83
2023/07/09 05:07:18;;;;;;;4.70;3.70;;;;;;;19.11;66.88;98709.73;103916;1282;71866;-82
2023/07/09 05:09:46;;;;;;;3.30;3.00;;;;;;;19.18;66.72;98709.88;103951;1282;61127;-82
2023/07/09 05:12:13;;;;;;;8.40;3.10;;;;;;;19.24;66.43;98709.05;103893;1282;61166;-82
2023/07/09 05:14:40;;;;;;;3.70;3.20;;;;;;;19.31;66.31;98705.80;103978;1280;74907;-83
2023/07/09 05:17:08;;;;;;;4.30;2.80;;;;;;;19.38;66.08;98706.34;103950;1281;74464;-81
2023/07/09 05:19:35;;;;;;;4.10;3.10;;;;;;;19.45;66.01;98707.05;103870;1282;70480;-81
2023/07/09 05:22:02;;;;;;;2.90;2.40;;;;;;;19.52;65.53;98698.81;104032;1282;61166;-81
2023/07/09 05:24:29;;;;;;;4.20;2.70;;;;;;;19.59;65.65;98700.06;103944;1282;61631;-80
2023/07/09 05:26:56;;;;;;;3.60;3.10;;;;;;;19.66;65.74;98703.13;103675;1283;73015;-82
2023/07/09 05:29:24;;;;;;;3.30;2.90;;;;;;;19.73;65.47;98703.70;103991;1281;74154;-77
2023/07/09 05:31:51;;;;;;;2.80;2.60;;;;;;;19.80;64.69;98699.36;104019;1282;72490;-82
2023/07/09 05:34:18;;;;;;;3.90;2.40;;;;;;;19.88;64.17;98698.13;104016;1282;61113;-81
2023/07/09 05:36:46;;;;;;;4.10;2.70;;;;;;;19.96;63.93;98699.61;104048;1277;61100;-81
2023/07/09 05:39:13;;;;;;;3.70;2.40;;;;;;;20.04;63.01;98699.34;103945;1280;74051;-82
2023/07/09 05:41:41;;;;;;;2.20;2.00;;;;;;;20.11;62.32;98699.63;104285;1278;74245;-81
2023/07/09 05:44:09;;;;;;;2.50;2.00;;;;;;;20.18;60.71;98696.36;103709;1282;71514;-81
2023/07/09 05:46:37;;;;;;;3.20;2.20;;;;;;;20.26;60.12;98695.90;104325;1280;61218;-81
2023/07/09 05:49:05;;;;;;;2.70;2.00;;;;;;;20.35;59.42;98695.77;103930;1280;61052;-82
2023/07/09 05:51:32;;;;;;;3.20;2.00;;;;;;;20.42;58.25;98698.92;106648;1279;72775;-81
2023/07/09 05:53:59;;;;;;;2.70;2.10;;;;;;;20.51;58.15;98698.36;104241;1282;73163;-80
2023/07/09 05:56:26;;;;;;;4.90;2.10;;;;;;;20.59;57.64;98694.60;103960;1280;71631;-80
2023/07/09 05:58:53;;;;;;;3.30;1.90;;;;;;;20.67;57.65;98697.64;103842;1280;61122;-80
2023/07/09 06:01:21;;;;;;;3.20;2.30;;;;;;;20.74;57.60;98702.35;104100;1290;61141;-81
2023/07/09 06:03:48;;;;;;;3.10;1.90;;;;;;;20.81;57.41;98701.84;104124;1282;73725;-81
2023/07/09 06:06:17;;;;;;;2.80;1.90;;;;;;;20.87;57.49;98702.46;104085;1282;73663;-81
2023/07/09 06:08:44;;;;;;;2.60;2.20;;;;;;;20.92;57.27;98698.39;103861;1281;72892;-80
2023/07/09 06:11:11;;;;;;;3.30;2.00;;;;;;;21.00;57.15;98697.63;104066;1280;62249;-80
2023/07/09 06:13:38;;;;;;;3.00;2.20;;;;;;;21.05;57.41;98699.22;104182;1278;61189;-80
2023/07/09 06:16:06;;;;;;;3.00;1.50;;;;;;;21.11;56.61;98701.68;103812;1285;73830;-81
2023/07/09 06:18:33;;;;;;;2.00;1.90;;;;;;;21.17;55.70;98699.25;104054;1282;74105;-81
2023/07/09 06:21:01;;;;;;;2.40;2.20;;;;;;;21.22;55.30;98700.05;104006;1281;72406;-80
2023/07/09 06:23:28;;;;;;;3.50;2.20;;;;;;;21.29;54.83;98701.36;104044;1283;61199;-80
2023/07/09 06:25:57;;;;;;;3.60;2.30;;;;;;;21.35;53.54;98702.91;104202;1281;61179;-80
2023/07/09 06:28:25;;;;;;;2.70;1.90;;;;;;;21.40;54.04;98701.81;103882;1282;73587;-80
2023/07/09 06:30:53;;;;;;;2.80;1.90;;;;;;;21.45;53.57;98702.30;103954;1282;74374;-81
2023/07/09 06:33:20;;;;;;;2.50;2.00;;;;;;;21.51;54.06;98696.78;103929;1282;71534;-80
2023/07/09 06:35:51;;;;;;;2.40;1.80;;;;;;;21.56;54.50;98690.19;103943;1282;61138;-82
2023/07/09 06:38:18;;;;;;;2.30;1.80;;;;;;;21.63;53.68;98694.91;104036;1283;61539;-81
2023/07/09 06:40:45;;;;;;;3.80;2.00;;;;;;;21.70;52.96;98692.79;103970;1281;74125;-86
2023/07/09 06:43:13;;;;;;;1.80;1.60;;;;;;;21.76;52.83;98691.40;104005;1280;74366;-82
2023/07/09 06:45:51;;;;;;;4.30;2.10;;;;;;;21.82;52.94;98691.04;103747;1280;72588;-80
2023/07/09 06:48:19;;;;;;;1.80;1.60;;;;;;;21.89;53.71;98690.63;103786;1277;61240;-80
2023/07/09 06:50:47;;;;;;;2.30;2.10;;;;;;;21.95;53.74;98690.08;103567;1283;61147;-81
2023/07/09 06:53:14;;;;;;;2.20;2.00;;;;;;;22.01;53.68;98691.55;103900;1281;74905;-80
2023/07/09 06:55:41;;;;;;;2.20;2.00;;;;;;;22.07;53.66;98689.10;103946;1280;74324;-81
2023/07/09 06:58:09;;;;;;;4.70;1.90;;;;;;;22.14;53.65;98691.05;103686;1285;72634;-81
2023/07/09 07:00:36;;;;;;;2.20;2.00;;;;;;;22.20;53.64;98693.46;103834;1282;61635;-80
2023/07/09 07:03:03;;;;;;;3.30;2.10;;;;;;;22.27;52.05;98697.27;103983;1280;61080;-80
2023/07/09 07:05:31;;;;;;;3.70;2.00;;;;;;;22.33;52.28;98694.56;104013;1282;72868;-80
2023/07/09 07:07:59;;;;;;;1.70;1.60;;;;;;;22.40;52.80;98695.34;103680;1285;74310;-80
2023/07/09 07:10:26;;;;;;;2.50;2.30;;;;;;;22.46;52.69;98699.93;104005;1280;72658;-80
2023/07/09 07:12:54;;;;;;;4.10;1.80;;;;;;;22.52;52.51;98696.09;104199;1278;61083;-80
2023/07/09 07:15:22;;;;;;;2.30;1.90;;;;;;;22.58;52.23;98692.88;104178;1283;61234;-81
2023/07/09 07:17:49;;;;;;;4.20;2.30;;;;;;;22.64;52.28;98693.95;104034;1283;73061;-82
2023/07/09 07:20:16;;;;;;;2.50;2.20;;;;;;;22.70;51.92;98696.45;104058;1277;74347;-84
2023/07/09 07:22:43;;;;;;;2.90;2.20;;;;;;;22.76;51.71;98692.30;104026;1280;73506;-80
2023/07/09 07:25:11;;;;;;;2.20;1.90;;;;;;;22.81;51.54;98690.04;103996;1281;61461;-81
2023/07/09 07:27:39;;;;;;;3.50;1.90;;;;;;;22.86;51.37;98687.84;104150;1277;61110;-82
2023/07/09 07:30:09;;;;;;;2.30;2.00;;;;;;;22.92;51.76;98686.83;104126;1280;72708;-80
2023/07/09 07:32:38;;;;;;;3.20;2.10;;;;;;;22.98;52.02;98686.77;104204;1282;74525;-81
2023/07/09 07:35:05;;;;;;;1.80;1.70;;;;;;;23.04;51.30;98683.36;104474;1277;72665;-80
2023/07/09 07:37:33;;;;;;;2.80;1.90;;;;;;;23.09;50.60;98684.39;104270;1277;61208;-80
2023/07/09 07:40:00;;;;;;;2.80;1.90;;;;;;;23.16;50.66;98683.38;104032;1276;61247;-79
2023/07/09 07:42:28;;;;;;;3.80;2.10;;;;;;;23.21;50.51;98680.75;104251;1282;74575;-81
2023/07/09 07:44:55;;;;;;;2.10;2.00;;;;;;;23.28;51.37;98676.07;104064;1276;73097;-81
2023/07/09 07:47:22;;;;;;;1.90;1.70;;;;;;;23.36;51.12;98678.23;104126;1282;73676;-81
2023/07/09 07:49:49;;;;;;;3.70;2.00;;;;;;;23.43;50.17;98681.17;103844;1283;61182;-80
2023/07/09 07:52:16;;;;;;;2.50;2.00;;;;;;;23.51;49.80;98674.29;104260;1277;61110;-79
2023/07/09 07:54:44;;;;;;;5.70;2.40;;;;;;;23.58;50.50;98672.84;103995;1277;74403;-81
2023/07/09 07:57:12;;;;;;;2.80;1.90;;;;;;;23.66;50.00;98671.20;104028;1277;75579;-79
2023/07/09 07:59:39;;;;;;;2.60;2.40;;;;;;;23.73;49.78;98668.16;104077;1280;73967;-80
2023/07/09 08:02:10;;;;;;;3.20;1.70;;;;;;;23.80;50.11;98665.33;104163;1280;61157;-80
2023/07/09 08:04:38;;;;;;;4.10;1.80;;;;;;;23.88;50.07;98659.27;104149;1277;61109;-78
2023/07/09 08:07:07;;;;;;;3.50;2.30;;;;;;;23.96;49.77;98660.23;104223;1290;73905;-79
2023/07/09 08:09:37;;;;;;;2.90;1.90;;;;;;;24.03;49.17;98656.67;104267;1282;74155;-80
2023/07/09 08:12:09;;;;;;;2.30;1.90;;;;;;;24.11;49.42;98656.45;104207;1276;71437;-78
2023/07/09 08:14:45;;;;;;;3.80;2.20;;;;;;;24.19;48.58;98655.10;104483;1277;61087;-79
2023/07/09 08:17:12;;;;;;;2.40;1.80;;;;;;;24.28;48.09;98653.48;105111;1277;61309;-79
2023/07/09 08:19:47;;;;;;;3.90;1.90;;;;;;;24.35;47.45;98652.98;104365;1282;73816;-81
2023/07/09 08:22:15;;;;;;;2.00;1.80;;;;;;;24.43;47.83;98654.22;104124;1282;75540;-78
2023/07/09 08:24:42;;;;;;;2.20;2.00;;;;;;;24.50;48.26;98654.62;104419;1280;73039;-80
2023/07/09 08:27:09;;;;;;;5.00;1.90;;;;;;;24.59;47.70;98655.75;104285;1277;61025;-79
2023/07/09 08:29:37;;;;;;;2.40;1.80;;;;;;;24.65;47.26;98651.85;104097;1280;61266;-79
2023/07/09 08:32:06;;;;;;;2.30;2.00;;;;;;;24.73;47.49;98654.86;103783;1277;73638;-79
2023/07/09 08:34:33;;;;;;;4.40;2.00;;;;;;;24.80;46.73;98656.95;104391;1280;74421;-78
2023/07/09 08:37:01;;;;;;;3.60;1.90;;;;;;;24.87;46.43;98649.27;104105;1277;72329;-80
2023/07/09 08:39:28;;;;;;;3.80;1.90;;;;;;;24.96;46.27;98649.55;104116;1280;61604;-80
2023/07/09 08:41:59;;;;;;;5.60;2.20;;;;;;;25.03;46.89;98649.52;104034;1276;61205;-80
2023/07/09 08:45:22;;;;;;;3.50;2.10;;;;;;;25.12;47.52;98654.08;104093;1276;74351;-80
2023/07/09 08:48:31;;;;;;;4.10;1.70;;;;;;;25.25;47.64;98651.39;103463;1285;72973;-80
2023/07/09 08:51:29;;;;;;;3.30;2.10;;;;;;;25.37;47.75;98649.09;102564;1294;71310;-79
2023/07/09 08:53:59;;;;;;;1.90;1.80;;;;;;;25.49;47.40;98649.21;102630;1289;61327;-79
2023/07/09 08:56:28;;;;;;;3.60;2.10;;;;;;;25.59;45.87;98641.44;102650;1288;61259;-81
2023/07/09 08:58:56;;;;;;;2.40;2.00;;;;;;;25.68;45.54;98643.59;102575;1294;73528;-80
2023/07/09 09:01:26;;;;;;;2.30;2.10;;;;;;;25.75;44.78;98640.60;102604;1289;74427;-79
2023/07/09 09:03:58;;;;;;;3.20;2.30;;;;;;;25.82;44.76;98637.16;102856;1294;71404;-82
2023/07/09 09:06:27;;;;;;;3.70;1.70;;;;;;;25.87;45.42;98636.60;102802;1289;61347;-80
2023/07/09 09:09:32;;;;;;;3.50;2.20;;;;;;;25.93;44.18;98638.42;102768;1295;61202;-80
2023/07/09 09:12:11;;;;;;;3.80;1.70;;;;;;;26.00;43.12;98641.30;102670;1295;75004;-82
2023/07/09 09:14:40;;;;;;;1.80;1.70;;;;;;;26.04;42.44;98636.20;102695;1295;74607;-77
2023/07/09 09:17:16;;;;;;;2.00;1.80;;;;;;;26.06;42.47;98628.02;102644;1289;72808;-82
2023/07/09 09:19:52;;;;;;;10.40;2.00;;;;;;;26.11;43.43;98625.66;102808;1289;61228;-80
2023/07/09 09:22:22;;;;;;;2.50;1.90;;;;;;;26.19;43.57;98624.12;103360;1289;61125;-79
2023/07/09 09:24:58;;;;;;;2.30;2.10;;;;;;;26.28;43.12;98626.17;104140;1277;72993;-81
2023/07/09 09:27:26;;;;;;;2.30;2.10;;;;;;;26.38;42.74;98621.05;104066;1277;74357;-79
2023/07/09 09:29:53;;;;;;;2.50;2.10;;;;;;;26.48;42.34;98624.92;104431;1276;71975;-83
2023/07/09 09:32:26;;;;;;;4.60;2.00;;;;;;;26.57;41.61;98621.36;104205;1277;61227;-78
2023/07/09 09:34:53;;;;;;;2.20;2.10;;;;;;;26.65;41.46;98624.23;103796;1283;61214;-79
2023/07/09 09:37:31;;;;;;;2.70;2.30;;;;;;;26.73;41.00;98621.30;104390;1281;75000;-80
2023/07/09 09:40:01;;;;;;;2.50;2.20;;;;;;;26.80;40.97;98614.54;103961;1286;74820;-79
2023/07/09 09:42:43;;;;;;;4.50;2.30;;;;;;;26.89;40.78;98613.73;104078;1281;72635;-83
2023/07/09 09:45:12;;;;;;;4.50;1.90;;;;;;;26.97;40.72;98610.88;103942;1276;61074;-82
2023/07/09 09:47:39;;;;;;;3.80;2.20;;;;;;;27.03;40.62;98615.73;104045;1283;61194;-82
2023/07/09 09:50:12;;;;;;;6.50;2.40;;;;;;;27.09;40.02;98609.44;104058;1280;74119;-81
2023/07/09 09:52:39;;;;;;;2.90;2.30;;;;;;;27.16;38.88;98614.49;104096;1282;75514;-81
2023/07/09 09:55:33;;;;;;;5.70;2.30;;;;;;;27.24;38.16;98614.90;104028;1280;71990;-81
2023/07/09 09:58:02;;;;;;;3.80;2.20;;;;;;;27.31;39.56;98609.07;104085;1277;61132;-78
2023/07/09 10:00:33;;;;;;;5.30;2.30;;;;;;;27.38;39.99;98615.08;104292;1277;61200;-80
2023/07/09 10:03:05;;;;;;;3.00;2.50;;;;;;;27.46;39.65;98608.67;103948;1278;71770;-80
2023/07/09 10:05:38;;;;;;;2.40;1.90;;;;;;;27.55;38.98;98605.64;104092;1277;74936;-80
2023/07/09 10:08:09;;;;;;;8.80;2.20;;;;;;;27.64;38.99;98599.79;104046;1277;72694;-79
2023/07/09 10:10:36;;;;;;;4.60;2.10;;;;;;;27.73;38.45;98607.38;104258;1276;61077;-79
2023/07/09 10:13:43;;;;;;;2.80;2.60;;;;;;;27.81;38.27;98600.41;103945;1277;61110;-80
2023/07/09 10:16:17;;;;;;;5.80;2.20;;;;;;;27.91;37.29;98603.25;103249;1289;72857;-80
2023/07/09 10:18:54;;;;;;;3.70;2.10;;;;;;;27.97;36.41;98602.86;103197;1288;74350;-79
2023/07/09 10:21:21;;;;;;;4.50;2.30;;;;;;;28.03;35.65;98605.98;103061;1285;72872;-80
2023/07/09 10:24:05;;;;;;;4.20;2.70;;;;;;;28.09;35.58;98606.06;103288;1288;61262;-79
2023/07/09 10:26:36;;;;;;;2.80;2.40;;;;;;;28.17;36.07;98608.65;103077;1286;61323;-79
2023/07/09 10:29:21;;;;;;;3.80;2.00;;;;;;;28.26;36.11;98601.31;103007;1289;75248;-79
2023/07/09 10:32:10;;;;;;;4.20;2.10;;;;;;;28.39;36.30;98594.35;103190;1285;74698;-80
2023/07/09 10:34:50;;;;;;;2.90;1.80;;;;;;;28.55;35.96;98589.55;103045;1288;72417;-79
2023/07/09 10:37:20;;;;;;;2.40;2.20;;;;;;;28.73;35.90;98592.18;102910;1287;61191;-79
2023/07/09 10:39:50;;;;;;;2.70;2.50;;;;;;;28.89;35.56;98591.02;103182;1288;61166;-79
2023/07/09 10:42:27;;;;;;;2.30;2.20;;;;;;;29.05;35.15;98590.11;103150;1288;72288;-81
2023/07/09 10:45:13;;;;;;;3.30;2.30;;;;;;;29.23;34.90;98591.85;102957;1287;75440;-82
2023/07/09 10:47:45;;;;;;;14.30;2.60;;;;;;;29.40;34.58;98589.91;103404;1279;73601;-80
2023/07/09 10:50:24;;;;;;;2.50;2.10;;;;;;;29.55;33.07;98587.41;103767;1282;61508;-80
2023/07/09 10:52:52;;;;;;;2.80;1.80;;;;;;;29.69;32.21;98591.30;103929;1279;61228;-79
2023/07/09 10:55:26;;;;;;;1.90;1.70;;;;;;;29.79;31.68;98591.51;103835;1285;73671;-81
2023/07/09 10:57:58;;;;;;;2.20;2.00;;;;;;;29.88;32.09;98597.35;103881;1282;74436;-81
2023/07/09 11:00:36;;;;;;;2.20;2.00;;;;;;;29.92;32.19;98590.15;103666;1278;72640;-79
2023/07/09 11:03:16;;;;;;;3.60;2.00;;;;;;;29.96;32.37;98588.62;104063;1279;61171;-82
2023/07/09 11:05:43;;;;;;;3.40;1.60;;;;;;;30.03;32.45;98587.41;103898;1282;61167;-81
2023/07/09 11:08:34;;;;;;;4.10;2.00;;;;;;;30.12;32.75;98592.02;103777;1282;74942;-80
2023/07/09 11:11:10;;;;;;;2.10;1.90;;;;;;;30.24;32.25;98587.23;104043;1282;73535;-81
2023/07/09 11:13:41;;;;;;;4.90;2.30;;;;;;;30.35;31.82;98587.08;103829;1282;71645;-81
2023/07/09 11:16:31;;;;;;;3.20;1.90;;;;;;;30.43;31.44;98584.87;103669;1283;61207;-81
2023/07/09 11:19:00;;;;;;;7.40;2.40;;;;;;;30.56;31.00;98583.02;103640;1278;61180;-81
2023/07/09 11:21:27;;;;;;;3.20;2.40;;;;;;;30.65;31.24;98589.06;103864;1282;74914;-80
2023/07/09 11:23:56;;;;;;;4.20;2.10;;;;;;;30.75;31.24;98586.89;103748;1278;74069;-81
2023/07/09 11:26:27;;;;;;;2.60;2.20;;;;;;;30.86;31.33;98589.17;103792;1278;72783;-82
2023/07/09 11:28:56;;;;;;;5.60;2.10;;;;;;;30.96;31.32;98581.80;103751;1279;61159;-81
2023/07/09 11:31:30;;;;;;;5.30;2.20;;;;;;;31.08;32.09;98586.10;103818;1280;61224;-81
2023/07/09 11:34:05;;;;;;;2.40;2.20;;;;;;;31.25;32.00;98592.42;103780;1281;72454;-82
2023/07/09 11:36:34;;;;;;;2.70;2.20;;;;;;;31.43;31.77;98587.84;103809;1279;74460;-80